Select METAR Reports

 

KLWC - Lawrence, Kansas USA
Distance from station: S 12mi, 20km
Updated: 04/23/2019 10:52pm CDT
Mist, Mostly cloudy
Mist, Mostly cloudy
 Wind from calm
Wind: Calm
Temperature: 52°F , 11°C
Dew Point: 50°F , 10°C
Humidity: 94%
Barometer: 29.99 inHg , 1015.6 hPa
Summary: Mist
Clouds: Mostly cloudy
Visibility: 6 miles , 10 km
Cloud details: Mostly cloudy 4800 ft
2019/04/24 03:52 KLWC 240352Z AUTO 00000KT 6SM BR BKN048 11/10 A2999 RMK AO2 SLP156 T01110100
KTOP - Topeka/Billard, Kansas USA
Distance from station: WSW 23mi, 37km
Updated: 04/23/2019 10:53pm CDT
Partly cloudy
Partly cloudy
 Wind from calm
Wind: Calm
Temperature: 54°F , 12°C
Dew Point: 46°F , 8°C
Humidity: 77%
Barometer: 30.00 inHg , 1015.9 hPa
Clouds: Partly cloudy
Visibility: 10 miles , 16 km
Cloud details: Partly cloudy 10000 ft
2019/04/24 03:53 KTOP 240353Z AUTO 00000KT 10SM SCT100 12/08 A3000 RMK AO2 SLP158 T01170083
 
KMCI - Kansas City Intl, Missouri USA
Distance from station: ENE 28mi, 45km
Updated: 04/23/2019 11:05pm CDT
Overcast
Overcast
 Wind from calm
Wind: Calm
Temperature: 52°F , 11°C
Dew Point: 48°F , 9°C
Humidity: 88%
Barometer: 29.99 inHg , 1015.6 hPa
Clouds: Overcast
Visibility: 9 miles , 14 km
Cloud details: Mostly cloudy 2100 ft
Overcast 12000 ft
2019/04/24 04:05 KMCI 240405Z 00000KT 9SM BKN021 OVC120 11/09 A2999 RMK AO2 T01110094
KFOE - Topeka/Forbes, Kansas USA
Distance from station: SW 29mi, 46km
Updated: 04/23/2019 10:53pm CDT
Mostly cloudy
Mostly cloudy
 Wind from SSW
Wind: SSW 5 mph , 7 km/h
Temperature: 52°F , 11°C
Dew Point: 48°F , 9°C
Humidity: 88%
Barometer: 30.00 inHg , 1015.9 hPa
Clouds: Mostly cloudy
Visibility: 9 miles , 14 km
Cloud details: Mostly cloudy 6000 ft
Mostly cloudy 9000 ft
2019/04/24 03:53 KFOE 240353Z AUTO 20004KT 9SM BKN060 BKN090 11/09 A3000 RMK AO2 SLP159 T01060089
 
KIXD - Olathe/Industrial, Kansas USA
Distance from station: SE 32mi, 52km
Updated: 04/23/2019 10:53pm CDT
Mist, Overcast
Mist, Overcast
 Wind from NW
Wind: NW 3 mph , 6 km/h
Temperature: 54°F , 12°C
Dew Point: 50°F , 10°C
Humidity: 88%
Barometer: 30.00 inHg , 1015.9 hPa
Summary: Mist
Clouds: Overcast
Visibility: 6 miles , 10 km
Cloud details: Overcast 3600 ft
2019/04/24 03:53 KIXD 240353Z AUTO 31003KT 6SM BR OVC036 12/10 A3000 RMK AO2 SLP158 T01170100
KMKC - Kansas City/Dntn, Missouri USA
Distance from station: E 35mi, 56km
Updated: 04/23/2019 10:54pm CDT
Mostly cloudy
Mostly cloudy
 Wind from NNE
Wind: NNE 3 mph , 6 km/h
Temperature: 55°F , 13°C
Dew Point: 48°F , 9°C
Humidity: 77%
Barometer: 29.98 inHg , 1015.2 hPa
Clouds: Mostly cloudy
Visibility: 10 miles , 16 km
Cloud details: Mostly cloudy 4900 ft
2019/04/24 03:54 KMKC 240354Z 02003KT 10SM BKN049 13/09 A2998 RMK AO2 SLP152 T01330094
 
KMHK - Manhattan, Kansas USA
Distance from station: W 75mi, 120km
Updated: 04/23/2019 10:52pm CDT
Mostly cloudy
Mostly cloudy
 Wind from SSW
Wind: SSW 3 mph , 6 km/h
Temperature: 52°F , 11°C
Dew Point: 48°F , 9°C
Humidity: 88%
Barometer: 30.00 inHg , 1015.9 hPa
Clouds: Mostly cloudy
Visibility: 10 miles , 16 km
Cloud details: Mostly cloudy 11000 ft
2019/04/24 03:52 KMHK 240352Z AUTO 21003KT 10SM BKN110 11/09 A3000 RMK AO2 RAB0255E12 SLP161 P0000 T01110089
KFRI - Ft Riley/Marshal, Kansas, USA
Distance from station: W 83mi, 133km
Updated: 04/23/2019 11:06pm CDT
Light drizzle, Partly cloudy
Light drizzle, Partly cloudy
 Wind from WSW
Wind: WSW 3 mph , 6 km/h
Temperature: 54°F , 12°C
Dew Point: 48°F , 9°C
Humidity: 82%
Barometer: 30.01 inHg , 1016.3 hPa
Summary: Light Drizzle
Clouds: Partly cloudy
Visibility: 10 miles , 16 km
Cloud details: Partly cloudy 9500 ft
2019/04/24 04:06 KFRI 240406Z AUTO 25003KT 10SM -DZ SCT095 12/09 A3001 RMK AO2 DZE0358DZB06 SLP162
 
KOMA - Omaha, Nebraska USA
Distance from station: N 148mi, 239km
Updated: 04/23/2019 10:52pm CDT
Mostly cloudy
Mostly cloudy
 Wind from ESE
Wind: ESE 6 mph , 9 km/h
Temperature: 55°F , 13°C
Dew Point: 36°F , 2°C
Humidity: 47%
Barometer: 29.99 inHg , 1015.6 hPa
Clouds: Mostly cloudy
Visibility: 10 miles , 16 km
Cloud details: Mostly cloudy 25000 ft
2019/04/24 03:52 KOMA 240352Z 12005KT 10SM BKN250 13/02 A2999 RMK AO2 SLP155 T01330022
KICT - Wichita, Kansas USA
Distance from station: SW 176mi, 283km
Updated: 04/23/2019 10:53pm CDT
Overcast
Overcast
 Wind from E
Wind: E 3 mph , 6 km/h
Temperature: 55°F , 13°C
Dew Point: 48°F , 9°C
Humidity: 77%
Barometer: 30.00 inHg , 1015.9 hPa
Clouds: Overcast
Visibility: 10 miles , 16 km
Cloud details: Partly cloudy 1700 ft
Overcast 8000 ft
2019/04/24 03:53 KICT 240353Z 08003KT 10SM SCT017 OVC080 13/09 A3000 RMK AO2 SLP157 T01280089 $
 
KDSM - Des Moines, Iowa USA
Distance from station: NNE 186mi, 300km
Updated: 04/23/2019 10:54pm CDT
Partly cloudy
Partly cloudy
 Wind from SE
Wind: SE 3 mph , 6 km/h
Temperature: 55°F , 13°C
Dew Point: 36°F , 2°C
Humidity: 47%
Barometer: 30.00 inHg , 1015.9 hPa
Clouds: Partly cloudy
Visibility: 10 miles , 16 km
Cloud details: Partly cloudy 25000 ft
2019/04/24 03:54 KDSM 240354Z 13003KT 10SM SCT250 13/02 A3000 RMK AO2 SLP159 T01330022
KGLD - Goodland, Kansas USA
Distance from station: W 380mi, 611km
Updated: 04/23/2019 10:53pm CDT
Clear
Clear
 Wind from S
Wind: S 9 mph , 15 km/h
Temperature: 46°F , 8°C
Wind Chill: 41°F , 5°C
Dew Point: 34°F , 1°C
Humidity: 62%
Barometer: 30.00 inHg , 1015.9 hPa
Clouds: Clear
Visibility: 10 miles , 16 km
2019/04/24 03:53 KGLD 240353Z AUTO 18008KT 10SM CLR 08/01 A3000 RMK AO2 SLPNO T00780006
 
KOKC - Oklahoma City, Oklahoma USA
Distance from station: SSW 288mi, 463km
Updated: 04/23/2019 10:52pm CDT
Overcast
Overcast
 Wind from N
Wind: N 13 mph , 20 km/h
Temperature: 55°F , 13°C
Dew Point: 54°F , 12°C
Humidity: 94%
Barometer: 30.00 inHg , 1015.9 hPa
Clouds: Overcast
Visibility: 10 miles , 16 km
Cloud details: Overcast 700 ft
2019/04/24 03:52 KOKC 240352Z 36011KT 10SM OVC007 13/12 A3000 RMK AO2 SLP154 T01280122
KSTL - St Loius, Missouri USA
Distance from station: E 288mi, 463km
Updated: 04/23/2019 10:51pm CDT
Light rain, Overcast
Light rain, Overcast
 Wind from NE
Wind: NE 6 mph , 9 km/h
Temperature: 59°F , 15°C
Dew Point: 54°F , 12°C
Humidity: 82%
Barometer: 30.01 inHg , 1016.3 hPa
Summary: Light rain
Clouds: Overcast
Visibility: 10 miles , 16 km
Cloud details: Mostly cloudy 7500 ft
Overcast 9500 ft
2019/04/24 03:51 KSTL 240351Z 04005KT 10SM -RA BKN075 OVC095 15/12 A3001 RMK AO2 RAB25 SLP159 P0000 T01500117
 
KDFW - Dallas/Ft Worth, Texas USA
Distance from station: SSW 452mi, 728km
Updated: 04/23/2019 11:00pm CDT
Heavy thunderstorm, Rain, Mist, Overcast
Heavy thunderstorm, Rain, Mist, Overcast
 Wind from NNE
Wind: NNE 15 mph , 24 km/h, Gust: 23 mph , 37 km/h
Temperature: 63°F , 17°C
Dew Point: 61°F , 16°C
Humidity: 94%
Barometer: 29.95 inHg , 1014.2 hPa
Summary: Heavy thunderstorm, Rain, Mist
Clouds: Overcast
Visibility: 3 miles , 5 km
Cloud details: Few Clouds 700 ft
Overcast 4600 ft
2019/04/24 04:00 KDFW 240400Z 02013G20KT 3SM +TSRA BR FEW007 OVC046CB 17/16 A2995 RMK AO2 LTG DSNT ALQDS FRQ LTGICCC ALQDS TS ALQDS MOV NE P0005 T01670156
PHNL - Honolulu, HI USA
Distance from station: WSW 3856mi, 6206km
Updated: 04/23/2019 10:53pm CDT
Partly cloudy
Partly cloudy
 Wind from NE
Wind: NE 10 mph , 17 km/h, Gust: 21 mph , 33 km/h
Temperature: 81°F , 27°C
Heat Index: 82°F , 28°C
Dew Point: 63°F , 17°C
Humidity: 54%
Barometer: 30.05 inHg , 1017.6 hPa
Clouds: Partly cloudy
Visibility: 10 miles , 16 km
Cloud details: Few Clouds 2500 ft
Few Clouds 4700 ft
Partly cloudy 5500 ft
2019/04/24 03:53 PHNL 240353Z 04009G18KT 10SM FEW025 FEW047 SCT055 27/17 A3005 RMK AO2 SLP175 VCSH NE-E T02670172 VISNO RWY04R $